In Rescue
 
Open Full Screen Window  High Contrast Mode
Wind Gusting 00 knots
05
September 21, 2020 11:04 PM CDT
Weather Information
Wind Direction
  240 °
Wind Speed
  05 kt (6 mph)
Wind Gust
  00 kt (0 mph)
Altimeter
29.99 in
Visibility
10 SM
Temperature
15° C
59° F
Dewpoint
11° C
52° F
Humidity
77%
1hr Rain Fall
00.00 in.
24hr Rain Fall
00.00 in.
Sky Condition
Clear
VFR

METAR KRRT 220404Z AUTO 24005KT 10SM CLR 15/11 A2999 RMK AO2

FAA Disclaimer: The data displayed is for advisory purposes only and is not to be used for flight planning or operations.